Time;durP1;ratioP1;P1;durP2;ratioP2;P2;SDS_P1;SDS_P2;PMS_P1;PMS_P2;Temp;Humidity;BMP_temperature;BMP_pressure;BME280_temperature;BME280_humidity;BME280_pressure;Samples;Min_cycle;Max_cycle;Signal;HPM_P1;HPM_P2
2021/03/19 00:00:44;;;;;;;;;;;21.70;33.50;;;;;;467147;254;1117;-46
2021/03/19 00:02:46;;;;;;;;;;;21.70;33.50;;;;;;467914;253;1163;-46
2021/03/19 00:04:47;;;;;;;;;;;21.70;33.50;;;;;;467839;254;1121;-46
2021/03/19 00:06:48;;;;;;;;;;;21.70;33.50;;;;;;467859;254;1066;-46
2021/03/19 00:08:49;;;;;;;;;;;21.70;33.50;;;;;;467840;254;1121;-46
2021/03/19 00:10:51;;;;;;;;;;;21.70;33.50;;;;;;467763;254;1098;-45
2021/03/19 00:12:52;;;;;;;;;;;21.70;33.50;;;;;;469198;254;1049;-46
2021/03/19 00:14:53;;;;;;;;;;;21.70;33.50;;;;;;469650;254;2204;-46
2021/03/19 00:16:55;;;;;;;;;;;21.70;33.50;;;;;;469171;254;1225;-46
2021/03/19 00:18:56;;;;;;;;;;;21.70;33.60;;;;;;469614;254;1036;-46
2021/03/19 00:20:57;;;;;;;;;;;21.70;33.50;;;;;;467531;253;1361;-45
2021/03/19 00:22:58;;;;;;;;;;;21.70;33.50;;;;;;469064;253;1076;-46
2021/03/19 00:25:00;;;;;;;;;;;21.70;33.50;;;;;;467252;252;1067;-46
2021/03/19 00:27:01;;;;;;;;;;;21.70;33.50;;;;;;467868;253;1060;-46
2021/03/19 00:29:02;;;;;;;;;;;21.70;33.50;;;;;;467603;253;1082;-46
2021/03/19 00:31:03;;;;;;;;;;;21.70;33.50;;;;;;468869;253;1098;-46
2021/03/19 00:33:05;;;;;;;;;;;21.70;33.50;;;;;;467049;254;1240;-46
2021/03/19 00:35:06;;;;;;;;;;;21.80;33.50;;;;;;467553;255;2215;-46
2021/03/19 00:37:07;;;;;;;;;;;21.80;33.50;;;;;;467853;254;1068;-46
2021/03/19 00:39:09;;;;;;;;;;;21.80;33.50;;;;;;467644;253;975;-46
2021/03/19 00:41:10;;;;;;;;;;;21.80;33.50;;;;;;469173;252;1123;-46
2021/03/19 00:43:11;;;;;;;;;;;21.80;33.60;;;;;;467039;252;1003;-46
2021/03/19 00:45:12;;;;;;;;;;;21.80;33.50;;;;;;467766;253;1071;-46
2021/03/19 00:47:14;;;;;;;;;;;21.80;33.50;;;;;;467975;254;1187;-46
2021/03/19 00:49:15;;;;;;;;;;;21.80;33.50;;;;;;467895;254;1037;-46
2021/03/19 00:51:16;;;;;;;;;;;21.80;33.50;;;;;;467837;254;1184;-46
2021/03/19 00:53:18;;;;;;;;;;;21.80;33.50;;;;;;467611;253;1071;-46
2021/03/19 00:55:19;;;;;;;;;;;21.80;33.50;;;;;;468846;252;2141;-46
2021/03/19 00:57:20;;;;;;;;;;;21.80;33.60;;;;;;466993;254;1179;-45
2021/03/19 00:59:21;;;;;;;;;;;21.80;33.60;;;;;;467807;253;1054;-46
2021/03/19 01:01:23;;;;;;;;;;;21.80;33.50;;;;;;467511;253;1285;-46
2021/03/19 01:03:24;;;;;;;;;;;21.80;33.50;;;;;;468874;254;1219;-46
2021/03/19 01:05:25;;;;;;;;;;;21.80;33.50;;;;;;467266;252;1114;-46
2021/03/19 01:07:26;;;;;;;;;;;21.80;33.50;;;;;;467740;253;1494;-46
2021/03/19 01:09:28;;;;;;;;;;;21.80;33.50;;;;;;469211;253;1182;-46
2021/03/19 01:11:29;;;;;;;;;;;21.80;33.50;;;;;;469497;250;1226;-46
2021/03/19 01:13:30;;;;;;;;;;;21.80;33.50;;;;;;467969;254;1092;-46
2021/03/19 01:15:32;;;;;;;;;;;21.80;33.50;;;;;;467873;254;2207;-46
2021/03/19 01:17:33;;;;;;;;;;;21.80;33.50;;;;;;468083;254;1220;-45
2021/03/19 01:19:34;;;;;;;;;;;21.80;33.50;;;;;;469236;254;1201;-46
2021/03/19 01:21:36;;;;;;;;;;;21.80;33.50;;;;;;469694;250;1291;-46
2021/03/19 01:23:37;;;;;;;;;;;21.80;33.50;;;;;;467556;252;1101;-46
2021/03/19 01:25:38;;;;;;;;;;;21.80;33.50;;;;;;468809;253;1072;-46
2021/03/19 01:27:40;;;;;;;;;;;21.80;33.50;;;;;;467160;253;1261;-46
2021/03/19 01:29:41;;;;;;;;;;;21.80;33.50;;;;;;467899;255;1278;-46
2021/03/19 01:31:42;;;;;;;;;;;21.80;33.50;;;;;;467540;253;1228;-46
2021/03/19 01:33:44;;;;;;;;;;;21.80;33.40;;;;;;468846;253;1206;-46
2021/03/19 01:35:45;;;;;;;;;;;21.80;33.50;;;;;;467034;253;2165;-46
2021/03/19 01:37:46;;;;;;;;;;;21.80;33.50;;;;;;467821;253;1162;-46
2021/03/19 01:39:47;;;;;;;;;;;21.90;33.50;;;;;;467629;252;1022;-46
2021/03/19 01:41:49;;;;;;;;;;;21.80;33.40;;;;;;468797;253;1165;-46
2021/03/19 01:43:50;;;;;;;;;;;21.80;33.40;;;;;;467015;253;1160;-46
2021/03/19 01:45:51;;;;;;;;;;;21.80;33.40;;;;;;467811;253;1080;-46
2021/03/19 01:47:53;;;;;;;;;;;21.90;33.50;;;;;;467856;254;1192;-46
2021/03/19 01:49:54;;;;;;;;;;;21.90;33.50;;;;;;467918;252;1010;-46
2021/03/19 01:51:55;;;;;;;;;;;21.90;33.40;;;;;;468877;246;1325;-46
2021/03/19 01:53:56;;;;;;;;;;;21.90;33.40;;;;;;467026;252;1067;-46
2021/03/19 01:55:58;;;;;;;;;;;21.90;33.50;;;;;;467823;255;2204;-46
2021/03/19 01:57:59;;;;;;;;;;;21.90;33.50;;;;;;467851;254;1114;-46
2021/03/19 02:00:00;;;;;;;;;;;21.90;33.40;;;;;;467573;253;1089;-46
2021/03/19 02:02:01;;;;;;;;;;;21.90;33.40;;;;;;468791;253;1163;-46
2021/03/19 02:04:03;;;;;;;;;;;21.90;33.40;;;;;;467057;252;1292;-46
2021/03/19 02:06:04;;;;;;;;;;;21.90;33.40;;;;;;467946;253;1111;-46
2021/03/19 02:08:06;;;;;;;;;;;21.90;33.50;;;;;;467706;253;1053;-46
2021/03/19 02:10:07;;;;;;;;;;;21.90;33.50;;;;;;468804;253;1123;-46
2021/03/19 02:12:08;;;;;;;;;;;21.90;33.40;;;;;;467003;252;1254;-46
2021/03/19 02:14:09;;;;;;;;;;;21.90;33.40;;;;;;468135;253;1080;-45
2021/03/19 02:16:11;;;;;;;;;;;21.90;33.40;;;;;;467745;254;2216;-46
2021/03/19 02:18:12;;;;;;;;;;;21.90;33.40;;;;;;467602;253;1180;-46
2021/03/19 02:20:14;;;;;;;;;;;21.90;33.40;;;;;;469083;253;1034;-46
2021/03/19 02:22:15;;;;;;;;;;;21.90;33.40;;;;;;467003;253;1102;-46
2021/03/19 02:24:16;;;;;;;;;;;21.90;33.40;;;;;;468003;253;1048;-46
2021/03/19 02:26:18;;;;;;;;;;;21.90;33.40;;;;;;467671;253;1100;-46
2021/03/19 02:28:19;;;;;;;;;;;21.90;33.40;;;;;;468969;253;1111;-46
2021/03/19 02:30:20;;;;;;;;;;;21.90;33.30;;;;;;467112;252;1078;-46
2021/03/19 02:32:22;;;;;;;;;;;21.90;33.40;;;;;;467816;253;1496;-46
2021/03/19 02:34:23;;;;;;;;;;;21.90;33.40;;;;;;467694;253;1201;-46
2021/03/19 02:36:25;;;;;;;;;;;21.90;33.40;;;;;;468838;250;2156;-46
2021/03/19 02:38:26;;;;;;;;;;;21.90;33.40;;;;;;467245;253;1983;-46
2021/03/19 02:40:27;;;;;;;;;;;21.90;33.40;;;;;;467975;253;1077;-46
2021/03/19 02:42:28;;;;;;;;;;;21.90;33.40;;;;;;467534;252;1112;-46
2021/03/19 02:44:30;;;;;;;;;;;21.90;33.40;;;;;;468779;253;1108;-46
2021/03/19 02:46:31;;;;;;;;;;;21.90;33.40;;;;;;467199;252;1123;-46
2021/03/19 02:48:32;;;;;;;;;;;21.90;33.30;;;;;;468131;250;1410;-46
2021/03/19 02:50:34;;;;;;;;;;;21.90;33.40;;;;;;467549;253;1115;-46
2021/03/19 02:52:35;;;;;;;;;;;21.90;33.40;;;;;;469150;253;1293;-46
2021/03/19 02:54:36;;;;;;;;;;;21.90;33.40;;;;;;467086;252;1067;-46
2021/03/19 02:56:37;;;;;;;;;;;22.00;33.40;;;;;;467952;253;2129;-46
2021/03/19 02:58:39;;;;;;;;;;;21.90;33.40;;;;;;469207;254;1073;-46
2021/03/19 03:00:40;;;;;;;;;;;21.90;33.40;;;;;;469718;253;1224;-46
2021/03/19 03:02:41;;;;;;;;;;;21.90;33.40;;;;;;467612;252;1223;-46
2021/03/19 03:04:43;;;;;;;;;;;22.00;33.40;;;;;;468964;252;1216;-46
2021/03/19 03:06:44;;;;;;;;;;;21.90;33.40;;;;;;467101;252;1273;-46
2021/03/19 03:08:45;;;;;;;;;;;21.90;33.40;;;;;;467825;253;1057;-46
2021/03/19 03:10:46;;;;;;;;;;;21.90;33.40;;;;;;467764;254;1165;-46
2021/03/19 03:12:48;;;;;;;;;;;21.90;33.40;;;;;;467576;252;1362;-45
2021/03/19 03:14:49;;;;;;;;;;;21.90;33.40;;;;;;468842;253;979;-46
2021/03/19 03:16:50;;;;;;;;;;;22.00;33.50;;;;;;466952;251;2197;-46
2021/03/19 03:18:51;;;;;;;;;;;21.90;33.40;;;;;;467982;253;1191;-46
2021/03/19 03:20:53;;;;;;;;;;;22.00;33.40;;;;;;469143;254;1210;-46
2021/03/19 03:22:54;;;;;;;;;;;22.00;33.40;;;;;;469551;253;1093;-46
2021/03/19 03:24:55;;;;;;;;;;;22.00;33.40;;;;;;467750;252;1108;-46
2021/03/19 03:26:57;;;;;;;;;;;22.00;33.40;;;;;;468962;252;1182;-46
2021/03/19 03:28:58;;;;;;;;;;;22.00;33.40;;;;;;467028;253;1070;-46
2021/03/19 03:30:59;;;;;;;;;;;22.00;33.40;;;;;;467971;253;1199;-46
2021/03/19 03:33:00;;;;;;;;;;;22.00;33.40;;;;;;467813;254;1119;-46
2021/03/19 03:35:02;;;;;;;;;;;21.90;33.40;;;;;;467544;253;2212;-46
2021/03/19 03:37:03;;;;;;;;;;;22.00;33.40;;;;;;468891;253;1063;-46
2021/03/19 03:39:04;;;;;;;;;;;22.00;33.50;;;;;;467030;253;1062;-46
2021/03/19 03:41:06;;;;;;;;;;;22.00;33.50;;;;;;468064;253;1107;-46
2021/03/19 03:43:07;;;;;;;;;;;21.90;33.40;;;;;;468069;254;1042;-46
2021/03/19 03:45:08;;;;;;;;;;;21.90;33.40;;;;;;469169;254;1108;-46
2021/03/19 03:47:09;;;;;;;;;;;21.90;33.50;;;;;;469570;254;1253;-46
2021/03/19 03:49:11;;;;;;;;;;;22.00;33.40;;;;;;469155;254;1414;-46
2021/03/19 03:51:12;;;;;;;;;;;22.00;33.50;;;;;;469678;253;1210;-46
2021/03/19 03:53:14;;;;;;;;;;;22.00;33.50;;;;;;467605;253;1037;-46
2021/03/19 03:55:15;;;;;;;;;;;22.00;33.40;;;;;;469003;252;2141;-46
2021/03/19 03:57:16;;;;;;;;;;;22.00;33.40;;;;;;467051;252;1136;-46
2021/03/19 03:59:17;;;;;;;;;;;22.00;33.40;;;;;;467884;255;1097;-46
2021/03/19 04:01:19;;;;;;;;;;;22.00;33.40;;;;;;468102;254;1296;-46
2021/03/19 04:03:20;;;;;;;;;;;22.00;33.40;;;;;;469317;254;989;-46
2021/03/19 04:05:21;;;;;;;;;;;22.00;33.40;;;;;;469605;253;1203;-46
2021/03/19 04:07:22;;;;;;;;;;;22.00;33.50;;;;;;467833;254;1338;-46
2021/03/19 04:09:24;;;;;;;;;;;22.00;33.40;;;;;;467685;252;980;-46
2021/03/19 04:11:25;;;;;;;;;;;22.00;33.50;;;;;;468857;253;1112;-46
2021/03/19 04:13:27;;;;;;;;;;;22.00;33.50;;;;;;467201;252;1367;-46
2021/03/19 04:15:28;;;;;;;;;;;22.00;33.50;;;;;;467848;253;2203;-46
2021/03/19 04:17:29;;;;;;;;;;;22.00;33.50;;;;;;468061;254;1269;-46
2021/03/19 04:19:30;;;;;;;;;;;22.00;33.50;;;;;;467861;254;1165;-46
2021/03/19 04:21:31;;;;;;;;;;;21.90;33.40;;;;;;467650;252;1152;-46
2021/03/19 04:23:33;;;;;;;;;;;21.90;33.40;;;;;;468840;253;1047;-46
2021/03/19 04:25:34;;;;;;;;;;;22.00;33.40;;;;;;467276;254;1264;-46
2021/03/19 04:27:35;;;;;;;;;;;22.00;33.40;;;;;;467866;253;1145;-46
2021/03/19 04:29:37;;;;;;;;;;;22.00;33.40;;;;;;467594;253;1093;-46
2021/03/19 04:31:38;;;;;;;;;;;22.00;33.50;;;;;;468959;253;1283;-45
2021/03/19 04:33:39;;;;;;;;;;;21.90;33.40;;;;;;467054;252;1055;-46
2021/03/19 04:35:41;;;;;;;;;;;22.00;33.40;;;;;;467984;255;2177;-46
2021/03/19 04:37:42;;;;;;;;;;;22.00;33.40;;;;;;467786;254;1224;-46
2021/03/19 04:39:43;;;;;;;;;;;22.00;33.40;;;;;;467613;253;1032;-46
2021/03/19 04:41:46;;;;;;;;;;;22.00;33.40;;;;;;468767;253;1085;-46
2021/03/19 04:43:47;;;;;;;;;;;22.00;33.40;;;;;;467118;252;1079;-46
2021/03/19 04:45:48;;;;;;;;;;;22.00;33.40;;;;;;467808;253;1079;-46
2021/03/19 04:47:52;;;;;;;;;;;22.00;33.40;;;;;;467841;254;1141;-46
2021/03/19 04:49:51;;;;;;;;;;;22.00;33.40;;;;;;467856;254;1462;-46
2021/03/19 04:51:52;;;;;;;;;;;22.00;33.40;;;;;;467829;254;1082;-46
2021/03/19 04:53:54;;;;;;;;;;;22.00;33.40;;;;;;467972;254;1068;-46
2021/03/19 04:55:55;;;;;;;;;;;22.00;33.30;;;;;;467597;252;2216;-46
2021/03/19 04:57:56;;;;;;;;;;;22.00;33.40;;;;;;468819;252;1305;-46
2021/03/19 04:59:58;;;;;;;;;;;22.10;33.40;;;;;;466997;252;1012;-46
2021/03/19 05:01:59;;;;;;;;;;;22.10;33.30;;;;;;467759;255;1478;-46
2021/03/19 05:04:00;;;;;;;;;;;22.10;33.30;;;;;;467807;254;1100;-46
2021/03/19 05:06:02;;;;;;;;;;;22.00;33.40;;;;;;467532;252;1309;-45
2021/03/19 05:08:03;;;;;;;;;;;22.00;33.40;;;;;;468783;252;1153;-45
2021/03/19 05:10:04;;;;;;;;;;;22.00;33.30;;;;;;467004;254;1034;-46
2021/03/19 05:12:05;;;;;;;;;;;22.10;33.40;;;;;;467730;255;1241;-46
2021/03/19 05:14:07;;;;;;;;;;;22.10;33.30;;;;;;467620;252;1073;-46
2021/03/19 05:16:08;;;;;;;;;;;22.10;33.30;;;;;;468670;253;2148;-46
2021/03/19 05:18:09;;;;;;;;;;;22.00;33.30;;;;;;466944;252;1206;-46
2021/03/19 05:20:10;;;;;;;;;;;22.10;33.20;;;;;;467855;255;1242;-46
2021/03/19 05:22:12;;;;;;;;;;;21.90;33.40;;;;;;467521;253;1035;-46
2021/03/19 05:24:13;;;;;;;;;;;21.30;34.40;;;;;;468867;252;1133;-46
2021/03/19 05:26:14;;;;;;;;;;;20.70;35.50;;;;;;466972;252;1041;-45
2021/03/19 05:28:16;;;;;;;;;;;20.30;36.30;;;;;;467784;253;1036;-46
2021/03/19 05:30:17;;;;;;;;;;;20.00;36.90;;;;;;467760;254;1145;-45
2021/03/19 05:32:19;;;;;;;;;;;19.70;37.40;;;;;;469075;253;1190;-46
2021/03/19 05:34:19;;;;;;;;;;;19.50;37.80;;;;;;469447;254;1684;-45
2021/03/19 05:36:21;;;;;;;;;;;19.40;38.10;;;;;;467356;253;2236;-45
2021/03/19 05:38:22;;;;;;;;;;;19.30;38.40;;;;;;468715;253;1069;-45
2021/03/19 05:40:23;;;;;;;;;;;19.20;38.60;;;;;;466952;252;1348;-45
2021/03/19 05:42:24;;;;;;;;;;;19.10;38.80;;;;;;467668;253;1273;-46
2021/03/19 05:44:27;;;;;;;;;;;18.90;38.90;;;;;;467373;254;1051;-45
2021/03/19 05:46:27;;;;;;;;;;;18.90;39.10;;;;;;468620;254;1470;-45
2021/03/19 05:48:28;;;;;;;;;;;18.80;39.10;;;;;;466876;253;1242;-46
2021/03/19 05:50:30;;;;;;;;;;;18.80;39.30;;;;;;467641;253;1075;-45
2021/03/19 05:52:31;;;;;;;;;;;18.70;39.30;;;;;;469036;254;1210;-45
2021/03/19 05:54:32;;;;;;;;;;;18.60;39.40;;;;;;469554;253;1147;-46
2021/03/19 05:56:33;;;;;;;;;;;18.60;39.50;;;;;;467635;254;2157;-45
2021/03/19 05:58:35;;;;;;;;;;;18.60;39.60;;;;;;467367;253;1235;-45
2021/03/19 06:00:36;;;;;;;;;;;18.50;39.60;;;;;;468652;253;1087;-45
2021/03/19 06:02:38;;;;;;;;;;;18.60;39.60;;;;;;466868;254;1103;-45
2021/03/19 06:04:39;;;;;;;;;;;18.50;39.70;;;;;;467616;253;2256;-45
2021/03/19 06:06:40;;;;;;;;;;;18.50;39.70;;;;;;467277;253;1333;-46
2021/03/19 06:08:42;;;;;;;;;;;18.40;39.80;;;;;;468705;252;1073;-45
2021/03/19 06:10:43;;;;;;;;;;;18.40;39.80;;;;;;466878;252;1120;-45
2021/03/19 06:12:44;;;;;;;;;;;18.30;39.80;;;;;;467692;253;1165;-46
2021/03/19 06:14:45;;;;;;;;;;;18.30;39.90;;;;;;467277;253;1210;-45
2021/03/19 06:16:47;;;;;;;;;;;18.30;39.90;;;;;;468557;253;2199;-45
2021/03/19 06:18:48;;;;;;;;;;;18.20;39.90;;;;;;466825;252;1129;-46
2021/03/19 06:20:50;;;;;;;;;;;18.20;40.00;;;;;;467686;253;1070;-45
2021/03/19 06:22:51;;;;;;;;;;;18.20;40.00;;;;;;467445;252;1160;-45
2021/03/19 06:24:52;;;;;;;;;;;18.20;40.10;;;;;;468649;253;1081;-45
2021/03/19 06:26:53;;;;;;;;;;;18.20;40.10;;;;;;466776;255;1081;-45
2021/03/19 06:28:55;;;;;;;;;;;18.10;40.20;;;;;;467659;253;1062;-45
2021/03/19 06:30:56;;;;;;;;;;;18.10;40.10;;;;;;467615;254;1113;-45
2021/03/19 06:32:57;;;;;;;;;;;18.10;40.10;;;;;;467253;252;1089;-45
2021/03/19 06:34:59;;;;;;;;;;;18.00;40.20;;;;;;468610;252;1142;-45
2021/03/19 06:37:00;;;;;;;;;;;18.10;40.20;;;;;;466662;252;2146;-45
2021/03/19 06:39:01;;;;;;;;;;;18.10;40.20;;;;;;467500;253;1072;-45
2021/03/19 06:41:02;;;;;;;;;;;18.00;40.10;;;;;;467321;253;1090;-45
2021/03/19 06:43:04;;;;;;;;;;;18.00;40.10;;;;;;468568;253;1104;-45
2021/03/19 06:45:05;;;;;;;;;;;18.00;40.10;;;;;;466536;254;1116;-45
2021/03/19 06:47:06;;;;;;;;;;;18.00;40.10;;;;;;467444;253;1100;-45
2021/03/19 06:49:08;;;;;;;;;;;18.00;40.00;;;;;;467128;254;1126;-45
2021/03/19 06:51:09;;;;;;;;;;;18.10;40.00;;;;;;468406;252;1240;-45
2021/03/19 06:53:11;;;;;;;;;;;18.10;40.00;;;;;;467489;253;2039;-45
2021/03/19 06:55:12;;;;;;;;;;;18.10;40.00;;;;;;467371;253;1120;-46
2021/03/19 06:57:13;;;;;;;;;;;18.10;40.00;;;;;;467447;254;2197;-45
2021/03/19 06:59:15;;;;;;;;;;;18.00;39.90;;;;;;467243;252;1091;-46
2021/03/19 07:01:16;;;;;;;;;;;18.10;39.90;;;;;;468536;252;1051;-45
2021/03/19 07:03:17;;;;;;;;;;;18.10;39.90;;;;;;466721;252;1089;-46
2021/03/19 07:05:18;;;;;;;;;;;18.10;39.90;;;;;;467544;253;1113;-45
2021/03/19 07:07:20;;;;;;;;;;;18.00;39.80;;;;;;467530;254;1153;-45
2021/03/19 07:09:21;;;;;;;;;;;18.00;39.80;;;;;;468593;253;1610;-45
2021/03/19 07:11:22;;;;;;;;;;;18.00;39.80;;;;;;468925;254;1289;-45
2021/03/19 07:13:24;;;;;;;;;;;18.00;39.80;;;;;;467202;252;1149;-45
2021/03/19 07:15:25;;;;;;;;;;;18.00;39.80;;;;;;468438;253;1084;-45
2021/03/19 07:17:27;;;;;;;;;;;18.00;39.80;;;;;;466729;254;2200;-45
2021/03/19 07:19:28;;;;;;;;;;;18.00;39.80;;;;;;467417;255;1123;-45
2021/03/19 07:21:29;;;;;;;;;;;18.00;39.80;;;;;;467546;253;1381;-45
2021/03/19 07:23:31;;;;;;;;;;;18.20;39.50;;;;;;467416;254;1257;-46
2021/03/19 07:25:32;;;;;;;;;;;18.60;38.70;;;;;;467052;252;1104;-46
2021/03/19 07:27:33;;;;;;;;;;;19.00;37.90;;;;;;468443;252;1259;-46
2021/03/19 07:29:34;;;;;;;;;;;19.30;37.20;;;;;;466418;252;1107;-46
2021/03/19 07:31:36;;;;;;;;;;;19.50;36.70;;;;;;467240;255;1086;-45
2021/03/19 07:33:37;;;;;;;;;;;19.70;36.40;;;;;;467168;252;1088;-45
2021/03/19 07:35:38;;;;;;;;;;;19.80;36.10;;;;;;468428;253;1086;-46
2021/03/19 07:37:39;;;;;;;;;;;19.90;35.90;;;;;;466585;252;2146;-46
2021/03/19 07:39:41;;;;;;;;;;;20.00;35.80;;;;;;467297;255;1206;-46
2021/03/19 07:41:42;;;;;;;;;;;20.10;35.60;;;;;;467262;254;1211;-45
2021/03/19 07:43:43;;;;;;;;;;;20.20;35.60;;;;;;469214;247;1222;-46
2021/03/19 07:45:45;;;;;;;;;;;20.20;35.50;;;;;;469179;253;1121;-45
2021/03/19 07:47:46;;;;;;;;;;;20.20;35.30;;;;;;468609;254;1247;-46
2021/03/19 07:49:47;;;;;;;;;;;20.30;35.30;;;;;;468983;254;1089;-46
2021/03/19 07:51:49;;;;;;;;;;;20.30;35.20;;;;;;467171;254;1230;-46
2021/03/19 07:53:50;;;;;;;;;;;20.40;35.10;;;;;;468623;253;1899;-46
2021/03/19 07:55:51;;;;;;;;;;;20.40;35.00;;;;;;469064;253;1080;-46
2021/03/19 07:57:53;;;;;;;;;;;20.50;35.00;;;;;;467006;253;2211;-46
2021/03/19 07:59:54;;;;;;;;;;;20.50;34.80;;;;;;468105;253;1085;-45
2021/03/19 08:01:56;;;;;;;;;;;20.60;34.80;;;;;;466262;251;1184;-46
2021/03/19 08:03:57;;;;;;;;;;;20.60;34.70;;;;;;467185;253;1075;-45
2021/03/19 08:05:58;;;;;;;;;;;20.60;34.70;;;;;;467136;254;1124;-46
2021/03/19 08:08:00;;;;;;;;;;;20.70;34.60;;;;;;467226;254;1160;-46
2021/03/19 08:10:01;;;;;;;;;;;20.70;34.60;;;;;;466981;254;1077;-46
2021/03/19 08:12:02;;;;;;;;;;;20.70;34.50;;;;;;466729;253;1126;-46
2021/03/19 08:14:03;;;;;;;;;;;20.80;34.50;;;;;;467969;252;1227;-46
2021/03/19 08:16:05;;;;;;;;;;;20.80;34.50;;;;;;466229;253;1075;-46
2021/03/19 08:18:06;;;;;;;;;;;20.80;34.40;;;;;;467047;253;2205;-46
2021/03/19 08:20:07;;;;;;;;;;;20.80;34.40;;;;;;466783;252;1135;-46
2021/03/19 08:22:08;;;;;;;;;;;20.80;34.40;;;;;;467952;252;1119;-45
2021/03/19 08:24:10;;;;;;;;;;;20.80;34.40;;;;;;466228;252;1224;-46
2021/03/19 08:26:11;;;;;;;;;;;20.90;34.40;;;;;;467014;253;1125;-45
2021/03/19 08:28:12;;;;;;;;;;;20.90;34.40;;;;;;466691;253;1277;-46
2021/03/19 08:30:14;;;;;;;;;;;20.90;34.30;;;;;;467994;252;1081;-45
2021/03/19 08:32:15;;;;;;;;;;;20.90;34.30;;;;;;466128;254;1182;-46
2021/03/19 08:34:16;;;;;;;;;;;21.00;34.30;;;;;;466973;255;1093;-46
2021/03/19 08:36:18;;;;;;;;;;;21.00;34.30;;;;;;466656;252;1092;-46
2021/03/19 08:38:19;;;;;;;;;;;21.00;34.20;;;;;;467993;252;2148;-46
2021/03/19 08:40:20;;;;;;;;;;;21.00;34.20;;;;;;466258;253;1140;-46
2021/03/19 08:42:22;;;;;;;;;;;21.00;34.20;;;;;;466838;255;1083;-46
2021/03/19 08:44:23;;;;;;;;;;;21.00;34.20;;;;;;466896;254;1112;-45
2021/03/19 08:46:24;;;;;;;;;;;21.00;34.10;;;;;;467008;254;1181;-46
2021/03/19 08:48:26;;;;;;;;;;;21.00;34.10;;;;;;466973;254;1216;-46
2021/03/19 08:50:27;;;;;;;;;;;21.10;34.10;;;;;;466785;251;1184;-46
2021/03/19 08:52:28;;;;;;;;;;;21.10;34.10;;;;;;467908;254;1128;-46
2021/03/19 08:54:31;;;;;;;;;;;21.10;34.00;;;;;;466217;252;1223;-45
2021/03/19 08:56:31;;;;;;;;;;;21.10;34.00;;;;;;466954;253;1989;-46
2021/03/19 08:58:32;;;;;;;;;;;21.10;34.00;;;;;;466959;250;2197;-46
2021/03/19 09:00:35;;;;;;;;;;;21.10;34.00;;;;;;468026;252;1158;-46
2021/03/19 09:02:35;;;;;;;;;;;21.10;34.00;;;;;;466055;254;1607;-46
2021/03/19 09:04:36;;;;;;;;;;;21.10;33.90;;;;;;466937;255;1150;-46
2021/03/19 09:06:37;;;;;;;;;;;21.20;34.00;;;;;;466660;254;1142;-45
2021/03/19 09:08:39;;;;;;;;;;;21.20;34.00;;;;;;467839;253;1504;-46
2021/03/19 09:10:40;;;;;;;;;;;21.20;34.00;;;;;;466099;253;1103;-45
2021/03/19 09:12:41;;;;;;;;;;;21.20;33.90;;;;;;466914;255;1232;-46
2021/03/19 09:14:43;;;;;;;;;;;21.20;33.90;;;;;;466646;254;1174;-46
2021/03/19 09:16:44;;;;;;;;;;;21.20;33.80;;;;;;468040;252;1116;-46
2021/03/19 09:18:46;;;;;;;;;;;21.20;33.90;;;;;;466205;253;2193;-46
2021/03/19 09:20:47;;;;;;;;;;;21.20;33.80;;;;;;466973;253;1933;-46
2021/03/19 09:22:48;;;;;;;;;;;21.20;33.80;;;;;;466827;252;1192;-46
2021/03/19 09:24:49;;;;;;;;;;;21.30;33.90;;;;;;467970;252;1414;-46
2021/03/19 09:26:51;;;;;;;;;;;21.20;33.80;;;;;;465960;253;1159;-46
2021/03/19 09:28:52;;;;;;;;;;;21.20;33.80;;;;;;466807;253;2261;-45
2021/03/19 09:30:53;;;;;;;;;;;21.20;33.80;;;;;;466554;252;1127;-46
2021/03/19 09:32:54;;;;;;;;;;;21.30;33.80;;;;;;467814;252;1195;-46
2021/03/19 09:34:56;;;;;;;;;;;21.30;33.80;;;;;;466104;253;1109;-46
2021/03/19 09:36:57;;;;;;;;;;;21.30;33.70;;;;;;466911;253;1231;-46
2021/03/19 09:38:58;;;;;;;;;;;21.30;33.70;;;;;;466613;253;2193;-46
2021/03/19 09:41:00;;;;;;;;;;;21.30;33.80;;;;;;467790;253;1153;-45
2021/03/19 09:43:01;;;;;;;;;;;21.30;33.80;;;;;;466864;252;1205;-46
2021/03/19 09:45:02;;;;;;;;;;;21.30;33.80;;;;;;467753;253;1346;-46
2021/03/19 09:47:03;;;;;;;;;;;21.30;33.80;;;;;;464605;255;1293;-46
2021/03/19 09:49:05;;;;;;;;;;;21.30;33.70;;;;;;467328;253;871;-45
2021/03/19 09:51:06;;;;;;;;;;;21.30;33.70;;;;;;472012;251;1190;-45
2021/03/19 09:53:07;;;;;;;;;;;21.40;33.70;;;;;;467423;252;1028;-46
2021/03/19 09:55:09;;;;;;;;;;;21.40;33.70;;;;;;468853;254;1110;-46
2021/03/19 09:57:10;;;;;;;;;;;21.40;33.70;;;;;;466708;253;2261;-45
2021/03/19 09:59:11;;;;;;;;;;;21.40;33.70;;;;;;467984;253;1188;-46
2021/03/19 10:01:12;;;;;;;;;;;21.40;33.70;;;;;;466302;253;1221;-46
2021/03/19 10:03:14;;;;;;;;;;;21.40;33.70;;;;;;467460;255;1100;-46
2021/03/19 10:05:15;;;;;;;;;;;21.40;33.70;;;;;;467659;253;859;-46
2021/03/19 10:07:16;;;;;;;;;;;21.40;33.70;;;;;;468786;253;1095;-46
2021/03/19 10:09:18;;;;;;;;;;;21.40;33.60;;;;;;466588;253;1090;-46
2021/03/19 10:11:19;;;;;;;;;;;21.40;33.70;;;;;;467826;253;904;-46
2021/03/19 10:13:20;;;;;;;;;;;21.40;33.60;;;;;;467748;254;948;-46
2021/03/19 10:15:21;;;;;;;;;;;21.40;33.70;;;;;;468698;254;1205;-46
2021/03/19 10:17:23;;;;;;;;;;;21.40;33.60;;;;;;469076;253;2239;-46
2021/03/19 10:19:24;;;;;;;;;;;21.50;33.60;;;;;;467808;254;897;-46
2021/03/19 10:21:25;;;;;;;;;;;21.50;33.60;;;;;;467545;253;1051;-46
2021/03/19 10:23:27;;;;;;;;;;;21.50;33.70;;;;;;468861;253;918;-46
2021/03/19 10:25:28;;;;;;;;;;;21.50;33.70;;;;;;466619;252;2294;-46
2021/03/19 10:27:29;;;;;;;;;;;21.50;33.70;;;;;;467850;253;875;-46
2021/03/19 10:29:30;;;;;;;;;;;21.50;33.60;;;;;;472101;251;903;-46
2021/03/19 10:31:32;;;;;;;;;;;21.50;33.70;;;;;;467827;252;864;-46
2021/03/19 10:33:33;;;;;;;;;;;21.50;33.70;;;;;;469166;254;1248;-46
2021/03/19 10:35:34;;;;;;;;;;;21.50;33.60;;;;;;467599;253;958;-46
2021/03/19 10:37:37;;;;;;;;;;;21.50;33.60;;;;;;468816;253;2203;-46
2021/03/19 10:39:37;;;;;;;;;;;21.50;33.60;;;;;;466495;253;1795;-46
2021/03/19 10:41:39;;;;;;;;;;;21.50;33.60;;;;;;466423;253;1010;-46
2021/03/19 10:43:40;;;;;;;;;;;21.50;33.60;;;;;;467576;253;1514;-46
2021/03/19 10:45:41;;;;;;;;;;;21.50;33.60;;;;;;467398;252;892;-46
2021/03/19 10:47:43;;;;;;;;;;;21.50;33.60;;;;;;468761;253;868;-46
2021/03/19 10:49:44;;;;;;;;;;;21.60;33.50;;;;;;466327;253;1100;-46
2021/03/19 10:51:45;;;;;;;;;;;21.50;33.50;;;;;;467022;253;1205;-46
2021/03/19 10:53:46;;;;;;;;;;;21.50;33.60;;;;;;466841;252;1120;-46
2021/03/19 10:55:48;;;;;;;;;;;21.60;33.60;;;;;;468012;253;1152;-46
2021/03/19 10:57:55;;;;;;;;;;;21.60;33.60;;;;;;466364;253;2204;-46
2021/03/19 10:59:52;;;;;;;;;;;21.60;33.50;;;;;;467731;253;1286;-46
2021/03/19 11:01:51;;;;;;;;;;;21.60;33.50;;;;;;467679;254;1192;-46
2021/03/19 11:03:53;;;;;;;;;;;21.60;33.50;;;;;;467344;254;850;-46
2021/03/19 11:05:54;;;;;;;;;;;21.60;33.50;;;;;;467399;254;1161;-46
2021/03/19 11:07:55;;;;;;;;;;;21.60;33.50;;;;;;467206;251;1329;-46
2021/03/19 11:09:57;;;;;;;;;;;21.60;33.50;;;;;;468152;253;1188;-46
2021/03/19 11:11:58;;;;;;;;;;;21.60;33.60;;;;;;466287;253;1616;-46
2021/03/19 11:13:59;;;;;;;;;;;21.60;33.60;;;;;;467382;253;866;-45
2021/03/19 11:16:02;;;;;;;;;;;21.60;33.50;;;;;;467311;254;1217;-46
2021/03/19 11:18:02;;;;;;;;;;;21.60;33.50;;;;;;467206;254;2216;-46
2021/03/19 11:20:03;;;;;;;;;;;21.60;33.60;;;;;;467694;254;962;-46
2021/03/19 11:22:04;;;;;;;;;;;21.60;33.50;;;;;;467489;251;1203;-45
2021/03/19 11:24:06;;;;;;;;;;;21.60;33.50;;;;;;467562;253;981;-46
2021/03/19 11:26:07;;;;;;;;;;;21.60;33.50;;;;;;468547;250;1197;-45
2021/03/19 11:28:08;;;;;;;;;;;21.60;33.40;;;;;;466568;252;1130;-46
2021/03/19 11:30:09;;;;;;;;;;;21.70;33.50;;;;;;467783;255;918;-46
2021/03/19 11:32:11;;;;;;;;;;;21.70;33.50;;;;;;467611;252;851;-46
2021/03/19 11:34:12;;;;;;;;;;;21.60;33.50;;;;;;468878;253;855;-45
2021/03/19 11:36:13;;;;;;;;;;;21.70;33.50;;;;;;466380;254;1080;-46
2021/03/19 11:38:14;;;;;;;;;;;21.70;33.50;;;;;;466931;253;2205;-46
2021/03/19 11:40:16;;;;;;;;;;;21.70;33.50;;;;;;466634;254;1202;-46
2021/03/19 11:42:17;;;;;;;;;;;21.60;33.50;;;;;;467845;253;1233;-46
2021/03/19 11:44:18;;;;;;;;;;;21.70;33.50;;;;;;465862;254;1216;-46
2021/03/19 11:46:20;;;;;;;;;;;21.70;33.50;;;;;;466208;253;1116;-46
2021/03/19 11:48:23;;;;;;;;;;;21.60;33.50;;;;;;466918;254;1214;-46
2021/03/19 11:50:22;;;;;;;;;;;21.70;33.50;;;;;;468219;254;1901;-46
2021/03/19 11:52:23;;;;;;;;;;;21.70;33.50;;;;;;468814;254;1090;-46
2021/03/19 11:54:25;;;;;;;;;;;21.70;33.50;;;;;;467166;254;1091;-46
2021/03/19 11:56:26;;;;;;;;;;;21.70;33.50;;;;;;466825;252;1217;-46